Time;durP1;ratioP1;P1;durP2;ratioP2;P2;SDS_P1;SDS_P2;PMS_P1;PMS_P2;Temp;Humidity;BMP_temperature;BMP_pressure;BME280_temperature;BME280_humidity;BME280_pressure;Samples;Min_cycle;Max_cycle;Signal;HPM_P1;HPM_P2
2022/11/17 00:00:38;;;;;;;9.47;8.70;;;21.70;62.90;;;;;;4987718;28;20472;-79
2022/11/17 00:03:06;;;;;;;9.33;8.50;;;21.70;63.00;;;;;;4983002;28;20472;-79
2022/11/17 00:05:36;;;;;;;9.30;8.50;;;21.70;63.10;;;;;;4986903;28;20461;-78
2022/11/17 00:08:05;;;;;;;9.90;9.00;;;21.70;62.90;;;;;;4984611;28;20467;-79
2022/11/17 00:10:33;;;;;;;9.07;8.23;;;21.70;63.00;;;;;;4975890;28;20455;-78
2022/11/17 00:15:46;;;;;;;8.60;7.80;;;21.70;62.90;;;;;;4987353;28;20465;-78
2022/11/17 00:21:20;;;;;;;8.40;7.60;;;21.70;62.90;;;;;;4986832;28;20917;-78
2022/11/17 00:23:48;;;;;;;8.13;7.33;;;21.70;62.90;;;;;;4987845;28;20547;-79
2022/11/17 00:26:19;;;;;;;7.60;6.90;;;21.70;62.80;;;;;;4979851;28;20481;-79
2022/11/17 00:28:47;;;;;;;9.70;8.57;;;21.70;62.80;;;;;;4983480;28;20496;-79
2022/11/17 00:34:07;;;;;;;7.90;7.30;;;21.70;62.70;;;;;;4973529;28;20460;-78
2022/11/17 00:36:39;;;;;;;7.80;7.17;;;21.70;62.80;;;;;;4994382;28;20443;-79
2022/11/17 00:39:09;;;;;;;7.03;6.33;;;21.70;62.70;;;;;;4993404;28;20792;-79
2022/11/17 00:41:37;;;;;;;7.90;7.20;;;21.70;62.70;;;;;;4982979;28;20452;-79
2022/11/17 00:44:06;;;;;;;9.43;6.30;;;21.70;62.70;;;;;;4976902;28;20494;-79
2022/11/17 00:46:35;;;;;;;7.97;7.27;;;21.70;62.70;;;;;;4986026;28;20513;-79
2022/11/17 00:49:04;;;;;;;8.13;7.37;;;21.70;62.70;;;;;;4974352;28;20517;-79
2022/11/17 00:51:33;;;;;;;6.70;6.17;;;21.70;62.70;;;;;;4984712;28;20554;-79
2022/11/17 00:54:04;;;;;;;6.83;6.33;;;21.70;62.60;;;;;;4976306;28;20805;-79
2022/11/17 00:56:32;;;;;;;6.13;5.63;;;21.70;62.60;;;;;;4990542;28;21120;-79
2022/11/17 00:59:00;;;;;;;6.50;5.90;;;21.70;62.60;;;;;;4980626;28;20955;-79
2022/11/17 01:01:29;;;;;;;6.37;5.93;;;21.70;62.60;;;;;;4977716;28;21081;-78
2022/11/17 01:04:02;;;;;;;5.57;5.17;;;21.70;62.60;;;;;;4979766;28;20874;-79
2022/11/17 01:06:32;;;;;;;6.27;5.83;;;21.70;62.50;;;;;;4991930;28;20473;-79
2022/11/17 01:09:03;;;;;;;6.60;5.97;;;21.70;62.60;;;;;;4993556;28;20464;-79
2022/11/17 01:11:31;;;;;;;6.17;5.77;;;21.70;62.60;;;;;;4990723;28;20536;-79
2022/11/17 01:14:01;;;;;;;6.20;5.77;;;21.60;62.60;;;;;;4993203;28;20459;-79
2022/11/17 01:16:31;;;;;;;5.83;5.40;;;21.70;62.60;;;;;;4992915;28;20528;-79
2022/11/17 01:19:00;;;;;;;5.77;5.30;;;21.70;62.60;;;;;;4993489;28;20465;-79
2022/11/17 01:21:30;;;;;;;5.77;5.37;;;21.70;62.50;;;;;;4980712;28;20462;-78
2022/11/17 01:24:00;;;;;;;5.63;5.23;;;21.70;62.50;;;;;;4980038;28;20986;-78
2022/11/17 01:26:32;;;;;;;5.70;5.30;;;21.70;62.40;;;;;;4993258;28;20993;-78
2022/11/17 01:29:01;;;;;;;5.13;4.73;;;21.60;62.50;;;;;;4991079;28;20465;-78
2022/11/17 01:31:31;;;;;;;5.60;5.10;;;21.60;62.50;;;;;;4973787;28;20456;-79
2022/11/17 01:33:59;;;;;;;5.30;4.90;;;21.60;62.50;;;;;;4986787;28;20447;-79
2022/11/17 01:36:30;;;;;;;5.17;4.67;;;21.70;62.50;;;;;;4976097;28;20449;-79
2022/11/17 01:38:58;;;;;;;5.60;5.20;;;21.60;62.50;;;;;;4988407;28;20460;-78
2022/11/17 01:41:28;;;;;;;5.30;5.00;;;21.60;62.50;;;;;;4993416;28;20453;-79
2022/11/17 01:43:58;;;;;;;5.63;5.23;;;21.60;62.50;;;;;;4993420;28;20572;-79
2022/11/17 01:46:31;;;;;;;4.90;4.00;;;21.60;62.50;;;;;;4992652;28;20444;-79
2022/11/17 01:49:05;;;;;;;4.87;4.57;;;21.70;62.40;;;;;;4992243;28;20492;-79
2022/11/17 01:51:38;;;;;;;4.83;4.40;;;21.60;62.40;;;;;;4986157;28;20946;-79
2022/11/17 01:54:08;;;;;;;5.23;4.87;;;21.60;62.40;;;;;;4990258;28;20444;-79
2022/11/17 01:56:43;;;;;;;4.30;4.00;;;21.60;62.40;;;;;;4992889;28;20447;-79
2022/11/17 01:59:21;;;;;;;5.10;4.70;;;21.60;62.30;;;;;;4991778;28;21358;-80
2022/11/17 02:01:55;;;;;;;4.90;4.50;;;21.60;62.30;;;;;;4985549;28;20468;-78
2022/11/17 02:04:25;;;;;;;4.57;4.27;;;21.60;62.40;;;;;;4995616;28;20461;-79
2022/11/17 02:06:59;;;;;;;4.30;3.90;;;21.60;62.30;;;;;;4995226;28;20575;-79
2022/11/17 02:09:28;;;;;;;4.67;4.37;;;21.60;62.40;;;;;;4983207;28;20852;-79
2022/11/17 02:11:59;;;;;;;4.20;3.90;;;21.60;62.30;;;;;;4991643;28;20461;-79
2022/11/17 02:14:28;;;;;;;5.43;5.00;;;21.60;62.30;;;;;;4994832;28;20472;-79
2022/11/17 02:16:57;;;;;;;5.17;4.80;;;21.60;62.40;;;;;;4994155;28;20539;-79
2022/11/17 02:19:39;;;;;;;4.50;4.20;;;21.60;62.30;;;;;;4996246;28;20448;-79
2022/11/17 02:22:33;;;;;;;4.47;4.13;;;21.60;62.30;;;;;;4986733;28;20483;-79
2022/11/17 02:25:39;;;;;;;4.70;4.40;;;21.60;62.50;;;;;;4993278;28;20464;-79
2022/11/17 02:28:16;;;;;;;5.27;4.83;;;21.60;62.50;;;;;;4980664;28;20477;-80
2022/11/17 02:30:54;;;;;;;4.57;4.17;;;21.60;62.50;;;;;;4995382;28;20645;-79
2022/11/17 02:33:30;;;;;;;4.23;3.93;;;21.60;62.50;;;;;;4982582;28;20538;-79
2022/11/17 02:36:04;;;;;;;4.03;3.73;;;21.60;62.30;;;;;;4992595;28;20492;-79
2022/11/17 02:38:41;;;;;;;4.60;4.30;;;21.60;62.30;;;;;;4993082;28;20469;-78
2022/11/17 02:41:15;;;;;;;4.20;3.90;;;21.60;62.40;;;;;;4986725;28;20543;-79
2022/11/17 02:44:02;;;;;;;4.50;4.20;;;21.60;62.40;;;;;;4994368;28;20484;-79
2022/11/17 02:46:37;;;;;;;4.30;3.90;;;21.60;62.40;;;;;;4994906;28;20453;-79
2022/11/17 02:49:09;;;;;;;4.20;3.90;;;21.60;62.40;;;;;;4992201;28;20536;-79
2022/11/17 02:51:39;;;;;;;4.40;4.10;;;21.60;62.40;;;;;;4988712;28;20478;-78
2022/11/17 02:54:08;;;;;;;4.40;4.10;;;21.60;62.30;;;;;;4993734;28;20870;-79
2022/11/17 02:56:41;;;;;;;3.97;3.67;;;21.60;62.40;;;;;;4995558;28;20444;-78
2022/11/17 02:59:13;;;;;;;3.80;3.50;;;21.60;62.40;;;;;;4985592;28;20528;-78
2022/11/17 03:02:10;;;;;;;4.10;3.80;;;21.60;62.30;;;;;;4989538;28;20806;-78
2022/11/17 03:04:50;;;;;;;3.70;3.50;;;21.60;62.30;;;;;;4990482;28;20468;-78
2022/11/17 03:07:33;;;;;;;4.20;3.90;;;21.60;62.30;;;;;;4984984;28;20488;-79
2022/11/17 03:10:13;;;;;;;4.70;4.30;;;21.60;62.30;;;;;;4986166;28;20450;-79
2022/11/17 03:12:46;;;;;;;3.93;3.63;;;21.60;62.30;;;;;;4987555;28;20447;-79
2022/11/17 03:15:27;;;;;;;4.20;3.90;;;21.60;62.30;;;;;;4979843;28;20452;-78
2022/11/17 03:18:06;;;;;;;3.40;3.20;;;21.60;62.30;;;;;;4976070;28;20461;-79
2022/11/17 03:20:42;;;;;;;3.50;3.30;;;21.60;62.20;;;;;;4993370;28;20544;-79
2022/11/17 03:23:14;;;;;;;4.20;3.80;;;21.60;62.20;;;;;;4976264;28;20436;-79
2022/11/17 03:25:45;;;;;;;4.00;3.80;;;21.60;62.20;;;;;;4987564;28;20885;-76
2022/11/17 03:28:17;;;;;;;4.10;3.80;;;21.60;62.20;;;;;;4988697;28;20479;-77
2022/11/17 03:30:49;;;;;;;3.60;3.33;;;21.60;62.20;;;;;;4980151;28;20940;-77
2022/11/17 03:33:21;;;;;;;4.57;4.27;;;21.60;62.20;;;;;;4993783;28;20460;-77
2022/11/17 03:35:55;;;;;;;3.77;3.57;;;21.60;62.20;;;;;;4993064;28;20480;-77
2022/11/17 03:38:27;;;;;;;3.73;3.43;;;21.60;62.20;;;;;;4990631;28;20949;-77
2022/11/17 03:40:58;;;;;;;3.90;3.60;;;21.60;62.20;;;;;;4986878;28;20463;-77
2022/11/17 03:43:28;;;;;;;3.97;3.67;;;21.60;62.20;;;;;;4995269;28;20510;-77
2022/11/17 03:46:03;;;;;;;3.77;3.57;;;21.60;62.20;;;;;;4993922;28;20462;-77
2022/11/17 03:48:36;;;;;;;4.27;3.97;;;21.60;62.20;;;;;;4992189;28;20488;-76
2022/11/17 03:51:08;;;;;;;3.53;3.33;;;21.60;62.10;;;;;;4971147;28;20540;-77
2022/11/17 03:53:37;;;;;;;4.43;3.83;;;21.60;62.20;;;;;;4993835;28;20517;-76
2022/11/17 03:56:14;;;;;;;4.17;3.70;;;21.60;62.10;;;;;;4989096;28;20482;-76
2022/11/17 03:58:53;;;;;;;3.60;3.40;;;21.60;62.10;;;;;;4990187;28;20457;-77
2022/11/17 04:01:24;;;;;;;3.77;3.50;;;21.60;62.10;;;;;;4989762;28;20486;-77
2022/11/17 04:03:53;;;;;;;3.97;3.67;;;21.60;62.00;;;;;;4974619;28;20966;-77
2022/11/17 04:06:21;;;;;;;4.40;4.10;;;21.60;62.00;;;;;;4989321;28;20473;-77
2022/11/17 04:08:49;;;;;;;4.17;3.87;;;21.60;62.10;;;;;;4992400;28;20574;-77
2022/11/17 04:16:50;;;;;;;3.87;3.67;;;21.60;62.00;;;;;;4993014;28;20802;-77
2022/11/17 04:19:18;;;;;;;3.90;3.50;;;21.50;61.90;;;;;;4993418;28;20464;-77
2022/11/17 04:21:46;;;;;;;4.30;4.00;;;21.60;62.00;;;;;;4985534;28;20462;-77
2022/11/17 04:24:14;;;;;;;4.40;4.00;;;21.60;61.80;;;;;;4983460;28;20458;-77
2022/11/17 04:29:28;;;;;;;4.30;4.00;;;21.60;61.80;;;;;;4985714;28;20504;-77
2022/11/17 04:31:58;;;;;;;3.90;3.60;;;21.50;61.90;;;;;;4985004;28;20454;-76
2022/11/17 04:34:26;;;;;;;4.20;3.93;;;21.50;61.90;;;;;;4980753;28;20466;-76
2022/11/17 04:36:54;;;;;;;3.93;3.63;;;21.50;61.90;;;;;;4987721;28;20467;-76
2022/11/17 04:39:22;;;;;;;4.17;3.87;;;21.50;61.80;;;;;;4992630;28;20461;-77
2022/11/17 04:41:52;;;;;;;3.37;3.17;;;21.50;61.80;;;;;;4981629;28;20938;-77
2022/11/17 04:44:22;;;;;;;3.30;3.10;;;21.50;61.80;;;;;;4987278;28;20858;-76
2022/11/17 04:46:51;;;;;;;3.43;3.23;;;21.50;61.80;;;;;;4987569;28;20457;-77
2022/11/17 04:49:22;;;;;;;3.90;3.60;;;21.50;61.80;;;;;;4993116;28;20476;-76
2022/11/17 04:51:51;;;;;;;3.40;3.20;;;21.50;61.80;;;;;;4982039;28;20478;-76
2022/11/17 04:54:22;;;;;;;3.77;3.47;;;21.50;61.80;;;;;;4974874;28;20447;-76
2022/11/17 04:56:51;;;;;;;3.47;3.27;;;21.50;61.70;;;;;;4992717;28;20464;-77
2022/11/17 04:59:19;;;;;;;3.60;3.40;;;21.50;61.80;;;;;;4989813;28;20464;-77
2022/11/17 05:01:47;;;;;;;3.80;3.50;;;21.50;61.80;;;;;;4986433;28;20460;-76
2022/11/17 05:04:54;;;;;;;3.53;3.33;;;21.50;61.70;;;;;;4989100;28;20457;-76
2022/11/17 05:07:09;;;;;;;3.73;3.47;;;21.50;61.70;;;;;;4987668;28;20473;-76
2022/11/17 05:09:37;;;;;;;3.30;3.10;;;21.50;61.70;;;;;;4983759;28;20479;-76
2022/11/17 05:14:51;;;;;;;4.43;4.03;;;21.50;61.70;;;;;;4988337;28;20500;-75
2022/11/17 05:17:19;;;;;;;3.50;3.07;;;21.50;61.70;;;;;;4981427;28;20449;-75
2022/11/17 05:19:48;;;;;;;3.60;3.30;;;21.50;61.70;;;;;;4982798;28;20466;-75
2022/11/17 05:25:08;;;;;;;3.80;3.60;;;21.50;61.70;;;;;;4989177;28;20468;-75
2022/11/17 05:27:37;;;;;;;3.33;3.13;;;21.50;61.60;;;;;;4983625;28;20456;-75
2022/11/17 05:30:08;;;;;;;3.80;3.50;;;21.50;61.60;;;;;;4981667;28;20484;-85
2022/11/17 05:32:36;;;;;;;3.80;3.50;;;21.50;61.60;;;;;;4987889;28;20447;-84
2022/11/17 05:35:05;;;;;;;3.60;3.40;;;21.50;61.80;;;;;;4986005;28;20469;-85
2022/11/17 05:37:34;;;;;;;4.20;3.90;;;21.50;61.90;;;;;;4992515;28;20444;-87
2022/11/17 05:40:03;;;;;;;5.23;3.97;;;21.50;62.10;;;;;;4988600;28;20547;-87
2022/11/17 05:42:31;;;;;;;3.50;3.20;;;21.50;62.10;;;;;;4992668;28;20448;-88
2022/11/17 05:44:59;;;;;;;3.73;3.43;;;21.50;62.20;;;;;;4986508;28;20488;-87
2022/11/17 05:47:27;;;;;;;3.63;3.40;;;21.50;62.20;;;;;;4990247;28;20552;-88
2022/11/17 05:49:55;;;;;;;4.00;3.70;;;21.50;62.20;;;;;;4985954;28;20491;-87
2022/11/17 05:52:23;;;;;;;4.00;3.73;;;21.50;62.20;;;;;;4983818;28;20462;-89
2022/11/17 05:54:53;;;;;;;4.47;4.17;;;21.50;62.30;;;;;;4986952;28;20496;-84
2022/11/17 05:57:28;;;;;;;3.30;3.10;;;21.50;62.30;;;;;;4984332;28;20953;-84
2022/11/17 06:00:03;;;;;;;4.63;4.23;;;21.50;62.30;;;;;;4985474;28;20462;-87
2022/11/17 06:02:44;;;;;;;3.70;3.40;;;21.50;62.50;;;;;;4987675;28;20887;-89
2022/11/17 06:05:12;;;;;;;3.47;3.27;;;21.50;62.70;;;;;;4993071;28;20434;-85
2022/11/17 06:07:48;;;;;;;3.40;3.20;;;21.50;62.70;;;;;;4991553;28;20490;-87
2022/11/17 06:10:18;;;;;;;5.30;3.47;;;21.50;62.80;;;;;;4972578;28;20491;-87
2022/11/17 06:12:46;;;;;;;3.43;3.23;;;21.50;63.00;;;;;;4989939;28;20461;-87
2022/11/17 06:15:14;;;;;;;4.00;3.70;;;21.50;63.10;;;;;;4987728;28;20487;-87
2022/11/17 06:17:47;;;;;;;5.00;4.60;;;21.50;63.20;;;;;;4989910;28;20472;-87
2022/11/17 06:20:18;;;;;;;4.03;3.73;;;21.50;63.20;;;;;;4988858;28;20476;-86
2022/11/17 06:22:48;;;;;;;3.97;3.63;;;21.50;63.30;;;;;;4983121;28;20457;-84
2022/11/17 06:25:19;;;;;;;3.80;3.50;;;21.50;63.20;;;;;;4986591;28;20973;-83
2022/11/17 06:27:48;;;;;;;4.13;3.77;;;21.50;63.30;;;;;;4986349;28;20544;-84
2022/11/17 06:30:17;;;;;;;3.97;3.67;;;21.50;63.20;;;;;;4982805;28;20500;-84
2022/11/17 06:32:48;;;;;;;9.23;4.57;;;21.50;63.20;;;;;;4988855;28;20453;-84
2022/11/17 06:35:17;;;;;;;7.03;4.17;;;21.40;63.30;;;;;;4986742;28;20484;-84
2022/11/17 06:37:45;;;;;;;4.83;4.53;;;21.40;63.30;;;;;;4991098;28;20464;-84
2022/11/17 06:40:13;;;;;;;4.60;4.13;;;21.40;63.30;;;;;;4984692;28;21036;-84
2022/11/17 06:45:29;;;;;;;4.10;3.70;;;21.40;63.40;;;;;;4982870;28;20588;-84
2022/11/17 06:47:57;;;;;;;4.37;4.00;;;21.40;63.40;;;;;;4991077;28;20493;-85
2022/11/17 06:50:25;;;;;;;4.10;3.80;;;21.40;63.40;;;;;;4992899;28;20580;-85
2022/11/17 06:52:57;;;;;;;5.83;5.33;;;21.40;63.40;;;;;;4973716;28;20459;-90
2022/11/17 06:55:26;;;;;;;5.63;5.10;;;21.40;64.80;;;;;;4987490;28;21002;-87
2022/11/17 06:58:00;;;;;;;6.47;5.00;;;21.40;65.40;;;;;;4994731;28;20453;-90
2022/11/17 07:00:30;;;;;;;5.00;4.33;;;21.40;65.00;;;;;;4989171;28;20544;-89
2022/11/17 07:03:02;;;;;;;6.93;3.63;;;21.40;64.40;;;;;;4984270;28;20924;-89
2022/11/17 07:05:31;;;;;;;4.83;4.43;;;21.40;64.30;;;;;;4985589;28;20472;-87
2022/11/17 07:08:00;;;;;;;4.87;3.83;;;21.40;64.20;;;;;;4994125;28;20532;-88
2022/11/17 07:10:29;;;;;;;4.50;4.10;;;21.40;64.20;;;;;;4997067;28;20520;-87
2022/11/17 07:12:59;;;;;;;4.70;4.30;;;21.40;64.20;;;;;;4993284;28;20512;-87
2022/11/17 07:15:27;;;;;;;4.13;3.73;;;21.40;64.10;;;;;;5000227;28;20549;-84
2022/11/17 07:17:55;;;;;;;4.70;4.30;;;21.40;64.10;;;;;;4985912;28;20478;-84
2022/11/17 07:20:23;;;;;;;4.50;4.10;;;21.40;64.00;;;;;;4985915;28;21266;-85
2022/11/17 07:22:52;;;;;;;4.20;3.80;;;21.40;64.00;;;;;;4987109;28;21004;-85
2022/11/17 07:25:20;;;;;;;4.37;3.80;;;21.40;63.90;;;;;;4983472;28;21138;-85
2022/11/17 07:27:56;;;;;;;4.13;3.83;;;21.40;63.90;;;;;;4984985;28;20508;-85
2022/11/17 07:30:26;;;;;;;5.30;4.10;;;21.40;63.80;;;;;;4987895;28;20511;-86
2022/11/17 07:32:54;;;;;;;4.33;4.03;;;21.40;63.80;;;;;;4993781;28;20494;-85
2022/11/17 07:35:23;;;;;;;9.13;4.20;;;21.40;63.70;;;;;;4987434;28;20463;-86
2022/11/17 07:37:52;;;;;;;4.80;4.23;;;21.40;63.60;;;;;;4983943;28;20852;-84
2022/11/17 07:40:20;;;;;;;4.53;4.03;;;21.40;63.50;;;;;;4988735;28;20448;-85
2022/11/17 07:42:48;;;;;;;4.03;3.83;;;21.40;63.40;;;;;;4987587;28;20953;-85
2022/11/17 07:45:17;;;;;;;4.80;4.30;;;21.40;63.40;;;;;;4974186;28;20489;-86
2022/11/17 07:47:52;;;;;;;4.97;4.57;;;21.40;63.30;;;;;;4993952;28;20571;-84
2022/11/17 07:50:20;;;;;;;3.70;3.50;;;21.40;63.30;;;;;;4987004;28;20865;-85
2022/11/17 07:52:49;;;;;;;4.07;3.67;;;21.40;63.20;;;;;;4987774;28;20485;-85
2022/11/17 07:55:17;;;;;;;4.60;4.30;;;21.40;63.20;;;;;;4986168;28;20457;-85
2022/11/17 07:57:45;;;;;;;4.10;3.80;;;21.40;63.20;;;;;;4982661;28;20793;-83
2022/11/17 08:00:14;;;;;;;4.43;4.13;;;21.40;63.20;;;;;;4988315;28;20457;-89
2022/11/17 08:02:43;;;;;;;4.90;4.57;;;21.40;63.50;;;;;;4995365;28;20496;-85
2022/11/17 08:05:15;;;;;;;4.30;4.00;;;21.40;63.60;;;;;;4997142;28;20487;-88
2022/11/17 08:07:43;;;;;;;4.40;4.10;;;21.40;63.60;;;;;;4993491;28;20485;-87
2022/11/17 08:10:11;;;;;;;4.27;3.97;;;21.40;63.70;;;;;;4992418;28;20563;-83
2022/11/17 08:12:39;;;;;;;3.83;3.53;;;21.40;63.80;;;;;;4989859;28;20491;-87
2022/11/17 08:15:09;;;;;;;4.77;4.37;;;21.40;63.90;;;;;;4990764;28;20499;-82
2022/11/17 08:17:37;;;;;;;3.93;3.63;;;21.50;63.80;;;;;;4994391;28;20528;-81
2022/11/17 08:20:06;;;;;;;4.03;3.83;;;21.50;63.90;;;;;;4991073;28;20458;-83
2022/11/17 08:22:35;;;;;;;4.80;4.40;;;21.50;63.90;;;;;;4984427;28;20451;-83
2022/11/17 08:25:04;;;;;;;4.53;3.73;;;21.50;64.00;;;;;;4989844;28;20453;-83
2022/11/17 08:27:33;;;;;;;3.30;3.00;;;21.60;64.00;;;;;;4977336;28;20481;-83
2022/11/17 08:30:02;;;;;;;4.47;4.17;;;21.60;64.00;;;;;;4982069;28;20567;-84
2022/11/17 08:32:30;;;;;;;4.00;3.70;;;21.60;64.10;;;;;;4989211;28;20493;-84
2022/11/17 08:34:58;;;;;;;4.80;4.40;;;21.60;64.10;;;;;;4988408;28;20490;-83
2022/11/17 08:37:26;;;;;;;4.00;3.67;;;21.60;64.10;;;;;;4994032;28;20558;-84
2022/11/17 08:39:56;;;;;;;3.83;3.53;;;21.70;64.00;;;;;;4992758;28;20552;-82
2022/11/17 08:42:24;;;;;;;3.50;3.30;;;21.70;63.90;;;;;;4997406;28;20568;-83
2022/11/17 08:44:52;;;;;;;4.80;4.13;;;21.70;64.00;;;;;;4996169;28;20509;-84
2022/11/17 08:47:21;;;;;;;3.63;3.33;;;21.70;64.00;;;;;;4986967;28;20988;-82
2022/11/17 08:49:49;;;;;;;4.00;3.70;;;21.70;63.90;;;;;;4989264;28;20968;-82
2022/11/17 08:52:18;;;;;;;6.00;3.97;;;21.80;64.00;;;;;;4992573;28;20548;-82
2022/11/17 08:54:46;;;;;;;3.90;3.60;;;21.80;64.00;;;;;;4987824;28;20458;-82
2022/11/17 08:57:15;;;;;;;3.50;3.30;;;21.80;64.00;;;;;;4987384;28;20449;-81
2022/11/17 08:59:44;;;;;;;4.03;3.73;;;21.80;64.00;;;;;;4984626;28;20891;-84
2022/11/17 09:02:12;;;;;;;4.60;4.20;;;21.80;64.00;;;;;;4989190;28;21654;-82
2022/11/17 09:04:40;;;;;;;4.93;4.00;;;21.80;64.00;;;;;;4990648;28;20472;-82
2022/11/17 09:07:09;;;;;;;4.10;3.80;;;21.80;64.00;;;;;;4996159;28;20465;-81
2022/11/17 09:09:37;;;;;;;4.80;3.50;;;21.80;64.00;;;;;;4989506;28;20466;-83
2022/11/17 09:12:05;;;;;;;3.40;3.20;;;21.80;64.00;;;;;;4987893;28;21031;-84
2022/11/17 09:14:35;;;;;;;3.87;3.57;;;21.90;64.00;;;;;;4987589;28;21850;-84
2022/11/17 09:17:04;;;;;;;3.70;3.50;;;21.90;63.90;;;;;;4987287;28;20459;-82
2022/11/17 09:19:32;;;;;;;4.20;3.30;;;21.90;63.90;;;;;;4986101;28;20460;-84
2022/11/17 09:22:00;;;;;;;4.10;3.80;;;21.90;63.80;;;;;;4984473;28;20488;-81
2022/11/17 09:24:28;;;;;;;3.93;3.70;;;21.90;63.80;;;;;;4990016;28;20449;-80
2022/11/17 09:26:57;;;;;;;4.20;3.80;;;21.90;63.60;;;;;;4990851;28;20496;-80
2022/11/17 09:29:26;;;;;;;4.03;3.67;;;21.90;63.70;;;;;;4984779;28;20489;-84
2022/11/17 09:31:55;;;;;;;4.53;3.70;;;21.90;63.90;;;;;;4984176;28;20507;-85
2022/11/17 09:34:24;;;;;;;3.77;3.20;;;21.90;63.70;;;;;;4987668;28;20544;-81
2022/11/17 09:36:52;;;;;;;4.30;3.93;;;21.90;63.90;;;;;;4990263;28;20473;-79
2022/11/17 09:39:21;;;;;;;3.83;3.53;;;21.90;63.90;;;;;;4986500;28;20452;-82
2022/11/17 09:41:51;;;;;;;3.67;3.30;;;21.90;64.00;;;;;;4989843;28;20496;-80
2022/11/17 09:44:29;;;;;;;3.67;3.40;;;21.90;64.00;;;;;;4989904;28;20511;-86
2022/11/17 09:47:05;;;;;;;4.23;3.90;;;21.90;64.00;;;;;;4988764;28;20464;-85
2022/11/17 09:49:41;;;;;;;4.03;3.80;;;21.90;64.00;;;;;;4988165;28;20527;-78
2022/11/17 09:52:17;;;;;;;4.90;3.53;;;21.90;63.80;;;;;;4995015;28;20474;-80
2022/11/17 09:54:51;;;;;;;4.00;3.73;;;21.90;64.00;;;;;;4987151;28;20449;-77
2022/11/17 09:57:25;;;;;;;4.20;3.90;;;21.90;63.90;;;;;;4986070;28;20485;-77
2022/11/17 10:00:04;;;;;;;3.73;3.43;;;21.90;64.00;;;;;;4989939;28;20453;-77
2022/11/17 10:02:34;;;;;;;3.80;3.50;;;21.90;64.00;;;;;;4990430;28;20532;-77
2022/11/17 10:05:02;;;;;;;3.63;3.33;;;21.90;64.00;;;;;;4989213;28;20957;-79
2022/11/17 10:07:32;;;;;;;5.03;3.50;;;21.90;63.90;;;;;;4982864;28;20487;-79
2022/11/17 10:10:03;;;;;;;5.43;4.23;;;21.90;63.90;;;;;;4985917;28;20464;-80
2022/11/17 10:12:36;;;;;;;4.60;3.70;;;22.00;64.00;;;;;;4986380;28;20509;-79
2022/11/17 10:15:21;;;;;;;3.60;3.30;;;22.00;64.00;;;;;;4988519;28;20446;-82
2022/11/17 10:17:52;;;;;;;3.00;2.80;;;22.00;63.80;;;;;;4983538;28;20544;-79
2022/11/17 10:20:20;;;;;;;3.73;3.50;;;22.00;63.80;;;;;;4986026;28;20445;-78
2022/11/17 10:22:52;;;;;;;6.20;3.67;;;22.00;63.80;;;;;;4994353;28;20929;-79
2022/11/17 10:25:23;;;;;;;4.70;4.30;;;22.00;63.80;;;;;;4994202;28;20536;-78
2022/11/17 10:27:53;;;;;;;4.77;4.30;;;22.00;63.70;;;;;;4992468;28;20564;-77
2022/11/17 10:30:23;;;;;;;4.47;3.80;;;22.00;63.90;;;;;;4994217;28;20515;-76
2022/11/17 10:32:55;;;;;;;4.23;3.17;;;22.10;63.80;;;;;;4992894;28;20841;-77
2022/11/17 10:35:25;;;;;;;4.03;3.73;;;22.10;63.80;;;;;;4994813;28;20984;-76
2022/11/17 10:37:56;;;;;;;4.37;3.40;;;22.10;63.70;;;;;;4989380;28;20489;-77
2022/11/17 10:40:26;;;;;;;3.57;3.27;;;22.10;63.80;;;;;;4981975;28;20443;-77
2022/11/17 10:42:59;;;;;;;4.27;3.97;;;22.10;63.80;;;;;;4991137;28;20500;-77
2022/11/17 10:45:28;;;;;;;3.73;3.47;;;22.10;63.80;;;;;;4990027;28;20510;-76
2022/11/17 10:48:10;;;;;;;3.40;3.10;;;22.10;63.70;;;;;;4992801;28;20580;-77
2022/11/17 10:50:52;;;;;;;3.37;3.17;;;22.10;63.80;;;;;;4993632;28;20667;-75
2022/11/17 10:53:26;;;;;;;4.90;3.47;;;22.10;63.70;;;;;;4985435;28;20557;-74
2022/11/17 10:56:00;;;;;;;3.87;3.57;;;22.10;63.80;;;;;;4989124;28;20479;-77
2022/11/17 10:58:29;;;;;;;3.43;3.23;;;22.10;63.80;;;;;;4988899;28;20519;-77
2022/11/17 11:00:59;;;;;;;3.83;3.10;;;22.10;63.80;;;;;;4994389;28;20872;-78
2022/11/17 11:03:30;;;;;;;4.37;3.50;;;22.10;63.80;;;;;;4993680;28;20446;-78
2022/11/17 11:06:02;;;;;;;3.60;3.40;;;22.20;63.70;;;;;;4994478;28;20456;-78
2022/11/17 11:08:45;;;;;;;3.93;3.73;;;22.20;63.80;;;;;;4991155;28;20477;-78
2022/11/17 11:11:26;;;;;;;3.63;3.17;;;22.30;63.70;;;;;;4984335;28;20485;-78
2022/11/17 11:14:09;;;;;;;3.30;3.03;;;22.40;63.60;;;;;;4991035;28;21013;-78
2022/11/17 11:16:37;;;;;;;4.10;3.80;;;22.50;63.30;;;;;;4990635;28;20560;-78
2022/11/17 11:19:16;;;;;;;3.20;3.00;;;22.60;63.10;;;;;;4985555;28;20466;-77
2022/11/17 11:22:08;;;;;;;3.90;3.60;;;22.80;62.90;;;;;;4988585;28;20572;-77
2022/11/17 11:24:45;;;;;;;3.80;3.50;;;22.80;62.60;;;;;;4989466;28;20464;-76
2022/11/17 11:27:43;;;;;;;2.93;2.73;;;22.90;62.50;;;;;;4991472;28;20581;-75
2022/11/17 11:30:14;;;;;;;3.43;3.23;;;22.90;62.50;;;;;;4990900;28;20442;-78
2022/11/17 11:32:54;;;;;;;2.80;2.60;;;22.90;62.40;;;;;;4987260;28;20480;-75
2022/11/17 11:35:42;;;;;;;2.60;2.40;;;23.00;62.40;;;;;;4982850;28;20460;-77
2022/11/17 11:38:32;;;;;;;3.50;3.20;;;23.10;62.00;;;;;;4989887;28;20588;-77
2022/11/17 11:41:19;;;;;;;4.40;2.77;;;23.30;61.40;;;;;;4987875;28;20550;-76
2022/11/17 11:43:59;;;;;;;2.40;2.30;;;23.50;60.90;;;;;;4989514;28;20858;-82
2022/11/17 11:46:41;;;;;;;2.87;2.67;;;23.70;60.40;;;;;;4987222;28;20568;-78
2022/11/17 11:49:16;;;;;;;2.27;1.70;;;23.90;60.20;;;;;;4987074;28;20877;-84
2022/11/17 11:51:49;;;;;;;1.23;1.13;;;23.50;54.90;;;;;;4994349;28;20573;-79
2022/11/17 11:54:30;;;;;;;1.00;0.80;;;21.70;56.40;;;;;;4983433;28;20555;-84
2022/11/17 11:57:00;;;;;;;2.83;1.50;;;19.90;58.80;;;;;;4993748;28;20473;-82
2022/11/17 11:59:38;;;;;;;1.60;1.50;;;18.90;61.10;;;;;;4989333;28;20555;-85
2022/11/17 12:02:22;;;;;;;5.43;4.83;;;18.40;61.60;;;;;;4986925;28;20445;-85
2022/11/17 12:04:59;;;;;;;4.40;3.70;;;17.80;63.20;;;;;;4986419;28;20524;-83
2022/11/17 12:07:38;;;;;;;3.20;2.87;;;17.90;66.10;;;;;;4993639;28;20461;-83
2022/11/17 12:10:15;;;;;;;4.33;3.20;;;18.60;66.60;;;;;;4992103;28;20452;-83
2022/11/17 12:12:46;;;;;;;3.63;3.00;;;19.40;65.50;;;;;;4985031;28;20996;-83
2022/11/17 12:15:34;;;;;;;4.23;2.70;;;20.20;64.40;;;;;;4969843;28;20466;-83
2022/11/17 12:18:10;;;;;;;2.70;2.50;;;20.90;63.10;;;;;;4985352;28;20454;-83
2022/11/17 12:21:03;;;;;;;3.40;2.73;;;21.40;62.20;;;;;;4987602;28;20492;-83
2022/11/17 12:23:46;;;;;;;3.87;3.37;;;21.80;61.40;;;;;;4985703;28;20458;-83
2022/11/17 12:26:22;;;;;;;3.77;2.80;;;22.10;60.90;;;;;;4980209;28;20485;-84
2022/11/17 12:29:24;;;;;;;4.10;2.70;;;22.50;60.40;;;;;;4991886;28;20489;-85
2022/11/17 12:31:53;;;;;;;2.70;2.50;;;22.70;59.80;;;;;;4989633;28;20441;-85
2022/11/17 12:34:25;;;;;;;2.43;2.23;;;23.00;59.40;;;;;;4988774;28;20538;-84
2022/11/17 12:37:26;;;;;;;4.40;2.33;;;23.20;59.10;;;;;;4986160;28;20455;-85
2022/11/17 12:39:59;;;;;;;2.77;2.43;;;23.40;58.70;;;;;;4992728;28;20508;-85
2022/11/17 12:42:27;;;;;;;2.80;2.20;;;23.60;58.40;;;;;;4991957;28;20499;-85
2022/11/17 12:44:58;;;;;;;3.30;3.00;;;23.70;58.20;;;;;;4989480;28;20820;-85
2022/11/17 12:47:29;;;;;;;3.17;2.40;;;23.80;58.10;;;;;;4988146;28;20512;-83
2022/11/17 12:50:29;;;;;;;3.20;2.47;;;24.00;58.00;;;;;;4989069;28;20492;-85
2022/11/17 12:53:25;;;;;;;3.50;2.87;;;24.10;57.90;;;;;;4987246;28;20487;-84
2022/11/17 12:56:23;;;;;;;2.70;2.00;;;24.10;57.80;;;;;;4983549;28;21009;-85
2022/11/17 12:59:04;;;;;;;2.20;2.03;;;24.20;57.70;;;;;;4986990;28;20469;-84
2022/11/17 13:01:42;;;;;;;2.80;2.10;;;24.20;57.70;;;;;;4987515;28;20468;-85
2022/11/17 13:04:14;;;;;;;2.40;2.03;;;24.20;57.70;;;;;;4989271;28;20458;-84
2022/11/17 13:06:58;;;;;;;2.03;1.93;;;24.20;57.80;;;;;;4988295;28;20461;-84
2022/11/17 13:09:27;;;;;;;3.10;2.13;;;24.20;57.80;;;;;;4985865;28;20510;-84
2022/11/17 13:12:02;;;;;;;3.70;1.77;;;24.20;57.80;;;;;;4986023;28;20952;-80
2022/11/17 13:14:31;;;;;;;2.20;2.00;;;24.20;57.80;;;;;;4983880;28;20455;-82
2022/11/17 13:17:00;;;;;;;4.30;2.63;;;24.30;57.80;;;;;;4988962;28;20456;-81
2022/11/17 13:19:34;;;;;;;1.57;1.33;;;24.30;57.70;;;;;;4988012;28;20461;-80
2022/11/17 13:22:05;;;;;;;2.10;1.90;;;24.30;57.80;;;;;;4985704;28;20465;-81
2022/11/17 13:24:35;;;;;;;3.23;1.53;;;24.20;58.00;;;;;;4978224;28;20536;-81
2022/11/17 13:27:15;;;;;;;2.67;2.03;;;24.20;58.00;;;;;;4982787;28;20879;-81
2022/11/17 13:29:43;;;;;;;2.17;1.97;;;24.20;58.00;;;;;;4983220;28;20450;-80
2022/11/17 13:32:14;;;;;;;2.53;2.33;;;24.20;58.10;;;;;;4986390;28;20447;-80
2022/11/17 13:34:47;;;;;;;2.03;1.93;;;24.20;58.10;;;;;;4984790;28;20561;-81
2022/11/17 13:37:18;;;;;;;3.20;2.30;;;24.20;58.10;;;;;;4990285;28;20535;-81
2022/11/17 13:39:56;;;;;;;5.57;2.20;;;24.20;58.10;;;;;;4982387;28;20467;-83